Time;durP1;ratioP1;P1;durP2;ratioP2;P2;SDS_P1;SDS_P2;PMS_P1;PMS_P2;Temp;Humidity;BMP_temperature;BMP_pressure;BME280_temperature;BME280_humidity;BME280_pressure;Samples;Min_cycle;Max_cycle;Signal;HPM_P1;HPM_P2
2021/07/26 00:29:17;;;;;;;7.40;6.70;;;20.10;99.90;;;;;;10283022;28;20313;-82
2021/07/26 00:34:20;;;;;;;8.60;6.70;;;20.10;99.90;;;;;;10405309;28;20214;-81
2021/07/26 00:39:24;;;;;;;5.90;5.40;;;20.10;99.90;;;;;;10374989;28;20285;-81
2021/07/26 00:44:29;;;;;;;6.90;6.40;;;20.10;99.90;;;;;;10389703;28;20206;-81
2021/07/26 00:49:31;;;;;;;7.00;6.50;;;20.10;99.90;;;;;;10364790;28;20258;-81
2021/07/26 00:54:35;;;;;;;8.10;6.10;;;20.10;99.90;;;;;;10386209;28;20205;-81
2021/07/26 00:59:40;;;;;;;6.70;6.13;;;20.10;99.90;;;;;;10370611;28;20222;-80
2021/07/26 01:04:42;;;;;;;7.00;6.40;;;20.00;99.90;;;;;;10385693;28;20202;-81
2021/07/26 01:09:44;;;;;;;6.67;6.07;;;20.00;99.90;;;;;;10376521;28;20225;-81
2021/07/26 01:14:48;;;;;;;6.90;6.40;;;20.00;99.90;;;;;;10377479;28;20233;-81
2021/07/26 01:19:50;;;;;;;7.37;6.77;;;20.00;99.90;;;;;;10386436;28;20253;-81
2021/07/26 01:24:53;;;;;;;6.97;6.27;;;20.00;99.90;;;;;;10406740;28;20205;-81
2021/07/26 01:29:55;;;;;;;7.57;6.87;;;20.10;99.90;;;;;;10402438;28;20222;-81
2021/07/26 01:35:01;;;;;;;6.90;6.40;;;20.10;99.90;;;;;;10407704;28;20194;-82
2021/07/26 01:40:06;;;;;;;7.50;6.57;;;20.10;99.90;;;;;;10405969;28;20214;-82
2021/07/26 01:45:09;;;;;;;6.70;5.93;;;20.20;99.90;;;;;;10409640;28;20216;-81
2021/07/26 01:50:14;;;;;;;6.57;5.97;;;20.20;99.90;;;;;;10383104;28;20604;-83
2021/07/26 01:55:17;;;;;;;6.93;6.17;;;20.20;99.90;;;;;;10401050;28;20223;-82
2021/07/26 02:00:20;;;;;;;6.90;6.40;;;20.20;99.90;;;;;;10403313;28;20290;-81
2021/07/26 02:05:22;;;;;;;7.90;7.30;;;20.20;99.90;;;;;;10381410;28;20289;-81
2021/07/26 02:10:25;;;;;;;8.73;7.83;;;20.20;99.90;;;;;;10394035;28;20203;-81
2021/07/26 02:15:27;;;;;;;7.57;6.97;;;20.20;99.90;;;;;;10396309;28;20570;-82
2021/07/26 02:20:29;;;;;;;6.97;6.43;;;20.20;99.90;;;;;;10379236;28;20353;-81
2021/07/26 02:25:33;;;;;;;7.87;7.17;;;20.20;99.90;;;;;;10395918;28;20203;-81
2021/07/26 02:30:36;;;;;;;7.77;7.07;;;20.20;99.90;;;;;;10402543;28;20238;-82
2021/07/26 02:35:38;;;;;;;7.80;7.17;;;20.10;99.90;;;;;;10405058;28;20257;-81
2021/07/26 02:40:41;;;;;;;7.33;6.83;;;20.10;99.90;;;;;;10404208;28;20234;-81
2021/07/26 02:45:44;;;;;;;7.17;6.57;;;20.10;99.90;;;;;;10421242;28;20305;-82
2021/07/26 02:50:46;;;;;;;9.03;8.00;;;20.00;99.90;;;;;;10412825;28;20195;-81
2021/07/26 02:55:49;;;;;;;8.43;7.27;;;20.00;99.90;;;;;;10417465;28;20218;-82
2021/07/26 03:00:52;;;;;;;7.60;6.90;;;20.00;99.90;;;;;;10377132;28;20223;-82
2021/07/26 03:05:54;;;;;;;6.90;6.40;;;20.00;99.90;;;;;;10420301;28;20236;-82
2021/07/26 03:11:01;;;;;;;7.50;6.60;;;20.10;99.90;;;;;;10415056;28;20201;-82
2021/07/26 03:16:05;;;;;;;9.73;6.60;;;20.10;99.90;;;;;;10417012;28;20229;-81
2021/07/26 03:21:07;;;;;;;7.57;6.97;;;20.10;99.90;;;;;;10399204;28;20232;-81
2021/07/26 03:26:11;;;;;;;6.90;6.23;;;20.10;99.90;;;;;;10415309;28;20232;-81
2021/07/26 03:31:13;;;;;;;8.50;7.70;;;20.10;99.90;;;;;;10416560;28;20288;-81
2021/07/26 03:36:16;;;;;;;9.97;7.33;;;20.10;99.90;;;;;;10415406;28;20222;-81
2021/07/26 03:41:21;;;;;;;7.50;6.80;;;20.20;99.90;;;;;;10414554;28;20705;-81
2021/07/26 03:46:23;;;;;;;9.60;6.63;;;20.20;99.90;;;;;;10398105;28;20245;-82
2021/07/26 03:51:25;;;;;;;6.67;6.27;;;20.10;99.90;;;;;;10414584;28;20285;-81
2021/07/26 03:56:28;;;;;;;7.80;7.20;;;20.10;99.90;;;;;;10406288;28;20222;-81
2021/07/26 04:01:31;;;;;;;7.70;7.00;;;20.10;99.90;;;;;;10397620;28;20225;-81
2021/07/26 04:06:33;;;;;;;7.13;6.53;;;20.10;99.90;;;;;;10412270;28;20313;-82
2021/07/26 04:11:38;;;;;;;7.80;7.20;;;20.20;99.90;;;;;;10415495;28;20225;-82
2021/07/26 04:16:40;;;;;;;9.73;6.17;;;20.20;99.90;;;;;;10406168;28;20222;-81
2021/07/26 04:21:42;;;;;;;6.67;6.07;;;20.20;99.90;;;;;;10413960;28;20697;-81
2021/07/26 04:26:46;;;;;;;6.60;6.00;;;20.20;99.90;;;;;;10414225;28;20225;-81
2021/07/26 04:31:50;;;;;;;6.33;5.73;;;20.20;99.90;;;;;;10415595;28;20210;-82
2021/07/26 04:36:52;;;;;;;6.50;5.80;;;20.10;99.90;;;;;;10416114;28;20305;-82
2021/07/26 04:41:55;;;;;;;6.70;6.00;;;20.20;99.90;;;;;;10396386;28;20257;-82
2021/07/26 04:46:57;;;;;;;6.73;6.17;;;20.20;99.90;;;;;;10386986;28;20681;-82
2021/07/26 04:52:00;;;;;;;5.90;5.50;;;20.20;99.90;;;;;;10392644;28;20210;-81
2021/07/26 04:57:03;;;;;;;6.90;6.30;;;20.30;99.90;;;;;;10421195;28;20728;-82
2021/07/26 05:02:06;;;;;;;6.80;5.40;;;20.30;99.90;;;;;;10387348;28;20214;-83
2021/07/26 05:07:08;;;;;;;5.80;5.30;;;20.30;99.90;;;;;;10385523;28;20215;-83
2021/07/26 05:12:13;;;;;;;7.10;5.93;;;20.20;99.90;;;;;;10415790;28;20199;-83
2021/07/26 05:17:19;;;;;;;6.30;5.70;;;20.20;99.90;;;;;;10400325;28;20215;-83
2021/07/26 05:22:21;;;;;;;6.30;5.80;;;20.20;99.90;;;;;;10395525;28;20700;-83
2021/07/26 05:27:28;;;;;;;6.60;6.00;;;20.20;99.90;;;;;;10381358;28;20220;-84
2021/07/26 05:32:30;;;;;;;5.80;5.40;;;20.20;99.90;;;;;;10392860;28;20195;-83
2021/07/26 05:37:32;;;;;;;11.20;6.40;;;20.20;99.90;;;;;;10394793;28;20277;-83
2021/07/26 05:42:36;;;;;;;10.23;6.17;;;20.20;99.90;;;;;;10398253;28;20218;-83
2021/07/26 05:47:38;;;;;;;7.30;6.70;;;20.20;99.90;;;;;;10370255;28;20313;-82
2021/07/26 05:52:40;;;;;;;6.53;5.93;;;20.30;99.90;;;;;;10409041;28;20207;-82
2021/07/26 05:57:47;;;;;;;7.77;7.07;;;20.40;99.90;;;;;;10415388;28;20221;-82
2021/07/26 06:02:49;;;;;;;6.57;6.03;;;20.40;99.90;;;;;;10396803;28;20656;-82
2021/07/26 06:07:58;;;;;;;9.17;7.00;;;20.50;99.90;;;;;;10370526;28;20716;-82
2021/07/26 06:13:05;;;;;;;6.93;6.33;;;20.60;99.90;;;;;;10421390;28;20194;-82
2021/07/26 06:18:07;;;;;;;6.03;5.47;;;20.70;99.90;;;;;;10409647;28;20230;-82
2021/07/26 06:23:09;;;;;;;6.20;5.60;;;20.80;99.90;;;;;;10393811;28;20245;-82
2021/07/26 06:28:12;;;;;;;7.97;5.27;;;20.90;99.90;;;;;;10404988;28;20616;-81
2021/07/26 06:33:15;;;;;;;5.20;4.80;;;21.00;99.90;;;;;;10397045;28;20732;-81
2021/07/26 06:38:17;;;;;;;5.30;4.90;;;21.10;99.90;;;;;;10418738;28;20317;-82
2021/07/26 06:43:20;;;;;;;5.27;4.87;;;21.10;99.90;;;;;;10419136;28;20260;-81
2021/07/26 06:48:31;;;;;;;7.10;5.40;;;21.30;99.90;;;;;;10397708;28;20313;-83
2021/07/26 06:53:33;;;;;;;5.87;5.37;;;21.40;99.90;;;;;;10420287;28;20217;-83
2021/07/26 06:58:42;;;;;;;5.30;4.90;;;21.60;99.90;;;;;;10402162;28;20222;-82
2021/07/26 07:03:46;;;;;;;5.10;4.70;;;21.60;99.90;;;;;;10403868;28;20221;-83
2021/07/26 07:08:48;;;;;;;5.67;5.03;;;21.70;99.90;;;;;;10401490;28;20229;-81
2021/07/26 07:13:53;;;;;;;4.93;4.53;;;21.90;99.90;;;;;;10419931;28;20285;-81
2021/07/26 07:18:56;;;;;;;5.33;4.83;;;22.00;99.90;;;;;;10414471;28;20232;-83
2021/07/26 07:24:01;;;;;;;5.53;5.03;;;22.20;99.90;;;;;;10416372;28;20217;-82
2021/07/26 07:29:04;;;;;;;5.10;4.40;;;22.30;99.90;;;;;;10417750;28;20222;-82
2021/07/26 07:34:07;;;;;;;4.67;4.27;;;22.50;99.90;;;;;;10399825;28;20256;-82
2021/07/26 07:39:10;;;;;;;7.90;4.97;;;22.70;99.90;;;;;;10399870;28;20253;-82
2021/07/26 07:44:13;;;;;;;6.70;4.53;;;23.00;99.90;;;;;;10416769;28;20206;-82
2021/07/26 07:49:15;;;;;;;7.10;4.90;;;23.20;99.90;;;;;;10415178;28;20217;-83
2021/07/26 07:54:18;;;;;;;4.83;4.33;;;23.50;99.90;;;;;;10398182;28;20208;-82
2021/07/26 07:59:21;;;;;;;4.67;4.17;;;23.90;99.90;;;;;;10417291;28;20221;-82
2021/07/26 08:04:23;;;;;;;5.40;4.90;;;24.30;99.90;;;;;;10414965;28;20658;-83
2021/07/26 08:09:25;;;;;;;4.60;4.20;;;24.60;99.90;;;;;;10400308;28;20228;-82
2021/07/26 08:14:29;;;;;;;4.60;4.30;;;24.90;99.90;;;;;;10358688;28;20293;-82
2021/07/26 08:19:31;;;;;;;4.83;4.43;;;25.20;99.90;;;;;;10408496;28;20783;-83
2021/07/26 08:24:33;;;;;;;4.17;3.83;;;25.50;99.90;;;;;;10415768;28;20292;-83
2021/07/26 08:29:36;;;;;;;4.30;3.47;;;25.70;99.90;;;;;;10417814;28;20499;-83
2021/07/26 08:34:38;;;;;;;4.83;4.43;;;26.00;99.90;;;;;;10416758;28;20292;-83
2021/07/26 08:39:41;;;;;;;4.90;3.70;;;26.40;99.90;;;;;;10413339;28;20232;-82
2021/07/26 08:44:44;;;;;;;4.23;3.90;;;26.60;99.90;;;;;;10408509;28;20225;-83
2021/07/26 08:49:47;;;;;;;7.13;3.97;;;27.00;99.90;;;;;;10393008;28;20271;-82
2021/07/26 08:54:52;;;;;;;4.60;3.60;;;27.30;99.90;;;;;;10414291;28;20209;-83
2021/07/26 08:59:55;;;;;;;3.73;3.40;;;27.70;99.90;;;;;;10414238;28;20229;-83
2021/07/26 09:04:58;;;;;;;3.90;3.60;;;28.00;99.90;;;;;;10384177;28;20205;-83
2021/07/26 09:10:00;;;;;;;3.93;3.63;;;28.50;99.90;;;;;;10413454;28;20225;-84
2021/07/26 09:15:04;;;;;;;4.20;3.90;;;28.80;99.90;;;;;;10414878;28;20284;-83
2021/07/26 09:20:07;;;;;;;4.03;3.63;;;29.10;99.90;;;;;;10409572;28;20220;-83
2021/07/26 09:25:20;;;;;;;4.13;3.73;;;29.00;99.90;;;;;;10395391;28;20218;-83
2021/07/26 09:30:24;;;;;;;3.93;3.63;;;28.50;99.90;;;;;;10410583;28;20678;-83
2021/07/26 09:35:27;;;;;;;3.80;3.50;;;27.90;99.90;;;;;;10413101;28;20580;-82
2021/07/26 09:40:33;;;;;;;4.17;3.80;;;28.10;99.90;;;;;;10413075;28;20588;-84
2021/07/26 09:45:41;;;;;;;3.90;3.60;;;28.50;99.90;;;;;;10416898;28;20201;-83
2021/07/26 09:50:45;;;;;;;3.60;3.40;;;29.00;99.10;;;;;;10404602;28;20206;-83
2021/07/26 09:55:50;;;;;;;3.67;3.37;;;29.40;99.00;;;;;;10404607;28;20230;-83
2021/07/26 10:00:53;;;;;;;4.73;4.10;;;29.80;94.40;;;;;;10404290;28;20541;-82
2021/07/26 10:05:56;;;;;;;3.70;3.40;;;30.40;95.00;;;;;;10422039;28;20577;-83
2021/07/26 10:10:59;;;;;;;4.53;4.13;;;31.30;92.70;;;;;;10415093;28;20199;-82
2021/07/26 10:16:02;;;;;;;3.40;3.20;;;31.90;93.90;;;;;;10398063;28;20651;-83
2021/07/26 10:21:07;;;;;;;3.50;3.30;;;33.20;90.00;;;;;;10407698;28;20292;-83
2021/07/26 10:26:12;;;;;;;5.43;3.37;;;34.70;82.60;;;;;;10419888;28;20224;-84
2021/07/26 10:31:44;;;;;;;3.40;3.20;;;34.60;83.70;;;;;;10404207;28;20267;-83
2021/07/26 10:36:52;;;;;;;3.67;3.37;;;33.40;79.90;;;;;;10370794;28;20256;-82
2021/07/26 10:42:02;;;;;;;5.30;3.27;;;32.20;81.00;;;;;;10401297;28;20597;-83
2021/07/26 10:47:24;;;;;;;4.30;3.40;;;31.20;79.70;;;;;;10414518;28;20242;-83
2021/07/26 10:52:45;;;;;;;3.83;3.53;;;30.20;78.30;;;;;;10414508;28;20197;-83
2021/07/26 10:57:47;;;;;;;4.47;4.07;;;29.40;86.20;;;;;;10403711;28;20335;-83
2021/07/26 11:02:51;;;;;;;3.90;3.40;;;28.80;90.10;;;;;;10418758;28;20301;-80
2021/07/26 11:08:25;;;;;;;3.73;3.47;;;28.40;90.80;;;;;;10387640;28;20228;-83
2021/07/26 11:14:05;;;;;;;3.43;3.23;;;28.00;89.80;;;;;;10393296;28;20190;-83
2021/07/26 11:19:36;;;;;;;4.50;4.20;;;27.80;89.70;;;;;;10421938;28;20214;-83
2021/07/26 11:24:49;;;;;;;3.83;3.53;;;27.60;91.70;;;;;;10406599;28;20260;-83
2021/07/26 11:29:53;;;;;;;8.50;4.03;;;27.60;96.10;;;;;;10421553;28;20259;-83
2021/07/26 11:34:58;;;;;;;3.43;3.23;;;27.70;95.50;;;;;;10400276;28;20296;-83
2021/07/26 11:40:03;;;;;;;4.90;3.60;;;27.50;92.60;;;;;;10399388;28;20232;-83
2021/07/26 11:45:07;;;;;;;7.30;3.20;;;27.40;92.30;;;;;;10417006;28;20225;-82
2021/07/26 11:50:12;;;;;;;4.00;3.67;;;27.30;90.80;;;;;;10416016;28;20228;-84
2021/07/26 11:55:15;;;;;;;5.13;4.63;;;27.30;93.50;;;;;;10399519;28;20209;-83
2021/07/26 12:00:25;;;;;;;3.70;3.40;;;27.30;93.60;;;;;;10416103;28;20245;-83
2021/07/26 12:05:30;;;;;;;6.60;3.93;;;27.20;96.00;;;;;;10417264;28;20612;-82
2021/07/26 12:10:33;;;;;;;4.33;3.87;;;27.00;96.00;;;;;;10406914;28;20201;-83
2021/07/26 12:15:39;;;;;;;3.63;3.33;;;26.60;97.00;;;;;;10374958;28;20198;-83
2021/07/26 12:20:44;;;;;;;4.53;4.20;;;26.30;98.10;;;;;;10389147;28;20313;-84
2021/07/26 12:32:28;;;;;;;5.23;3.97;;;25.90;99.90;;;;;;10356403;28;20209;-83
2021/07/26 12:37:32;;;;;;;5.00;4.50;;;25.70;99.90;;;;;;10358397;28;20301;-84
2021/07/26 12:42:34;;;;;;;4.37;3.97;;;25.60;99.90;;;;;;10358003;28;20313;-83
2021/07/26 12:47:44;;;;;;;4.70;4.23;;;25.60;99.90;;;;;;10360098;28;20253;-83
2021/07/26 12:52:47;;;;;;;6.50;4.67;;;25.50;99.90;;;;;;10351959;28;20265;-83
2021/07/26 12:57:49;;;;;;;4.20;3.90;;;25.30;99.90;;;;;;10364855;28;20230;-83
2021/07/26 13:02:51;;;;;;;4.90;4.13;;;25.30;99.90;;;;;;10366315;28;20230;-84
2021/07/26 13:07:56;;;;;;;4.13;3.73;;;25.30;99.90;;;;;;10346562;28;20222;-84
2021/07/26 13:12:58;;;;;;;4.40;3.77;;;25.30;99.90;;;;;;10366661;28;20708;-83
2021/07/26 13:18:00;;;;;;;4.10;3.80;;;25.40;99.90;;;;;;10354881;28;20249;-83
2021/07/26 13:23:04;;;;;;;4.87;4.47;;;25.50;99.90;;;;;;10367800;28;20241;-83
2021/07/26 13:28:06;;;;;;;3.80;3.50;;;25.70;99.90;;;;;;10363335;28;20230;-84
2021/07/26 13:33:09;;;;;;;3.13;2.87;;;26.00;99.90;;;;;;10354194;28;20203;-82
2021/07/26 13:38:12;;;;;;;3.17;2.60;;;26.20;99.90;;;;;;10366214;28;20321;-82
2021/07/26 13:43:14;;;;;;;3.23;3.03;;;26.30;99.90;;;;;;10365561;28;20250;-83
2021/07/26 13:48:16;;;;;;;3.10;2.80;;;26.40;99.90;;;;;;10366381;28;20284;-83
2021/07/26 13:53:20;;;;;;;3.60;3.37;;;26.40;99.90;;;;;;10363084;28;20225;-83
2021/07/26 13:58:25;;;;;;;3.20;3.00;;;26.40;99.90;;;;;;10376078;28;20732;-82
2021/07/26 14:03:28;;;;;;;5.90;4.00;;;26.30;99.90;;;;;;10381651;28;20218;-83
2021/07/26 14:08:32;;;;;;;4.67;4.17;;;26.00;99.90;;;;;;10342502;28;20237;-85
2021/07/26 14:13:34;;;;;;;4.07;3.77;;;25.80;99.90;;;;;;10368438;28;20187;-85
2021/07/26 14:18:36;;;;;;;3.50;3.30;;;25.60;99.90;;;;;;10378875;28;20601;-84
2021/07/26 14:23:39;;;;;;;4.47;4.03;;;25.40;99.90;;;;;;10377741;28;20227;-85
2021/07/26 14:28:41;;;;;;;4.33;3.87;;;25.10;99.90;;;;;;10345211;28;20245;-84
2021/07/26 14:33:47;;;;;;;4.30;4.00;;;24.90;99.90;;;;;;10360795;28;20274;-84
2021/07/26 14:38:53;;;;;;;6.63;4.03;;;24.70;99.90;;;;;;10362203;28;20657;-83
2021/07/26 14:43:58;;;;;;;14.40;6.60;;;24.50;99.90;;;;;;10368756;28;20230;-82
2021/07/26 14:49:02;;;;;;;10.63;7.13;;;24.30;99.90;;;;;;10381871;28;20234;-83
2021/07/26 14:54:06;;;;;;;7.63;6.90;;;23.60;99.90;;;;;;10367858;28;20643;-84
2021/07/26 14:59:09;;;;;;;7.60;6.90;;;22.80;99.90;;;;;;10346081;28;20226;-85
2021/07/26 15:04:11;;;;;;;7.67;7.07;;;22.20;99.90;;;;;;10379842;28;20238;-81
2021/07/26 15:09:14;;;;;;;8.37;7.33;;;21.80;99.90;;;;;;10363115;28;20226;-81
2021/07/26 15:14:16;;;;;;;5.80;5.40;;;21.50;99.90;;;;;;10369345;28;20210;-82
2021/07/26 15:19:18;;;;;;;6.23;5.73;;;21.30;99.90;;;;;;10365963;28;20665;-81
2021/07/26 15:24:22;;;;;;;6.67;5.00;;;21.00;99.90;;;;;;10360125;28;20230;-82
2021/07/26 15:29:27;;;;;;;6.40;5.60;;;20.70;99.90;;;;;;10369451;28;20269;-81
2021/07/26 15:34:29;;;;;;;5.27;4.73;;;20.60;99.90;;;;;;10352143;28;20289;-82
2021/07/26 15:39:33;;;;;;;5.10;4.60;;;20.40;99.90;;;;;;10368713;28;20322;-83
2021/07/26 15:44:35;;;;;;;9.83;5.47;;;20.40;99.90;;;;;;10344748;28;20286;-81
2021/07/26 15:49:37;;;;;;;5.30;4.90;;;20.40;99.90;;;;;;10368390;28;20222;-82
2021/07/26 15:54:41;;;;;;;4.93;4.53;;;20.40;99.90;;;;;;10347209;28;20740;-82
2021/07/26 15:59:44;;;;;;;5.93;5.33;;;20.60;99.90;;;;;;10351407;28;20237;-82
2021/07/26 16:04:46;;;;;;;6.23;5.10;;;20.80;99.90;;;;;;10350119;28;20625;-83
2021/07/26 16:09:50;;;;;;;4.63;4.33;;;20.90;99.90;;;;;;10349948;28;20276;-83
2021/07/26 16:14:52;;;;;;;5.30;4.90;;;20.90;99.90;;;;;;10352969;28;20245;-82
2021/07/26 16:19:54;;;;;;;5.53;5.03;;;20.80;99.90;;;;;;10367978;28;20293;-82
2021/07/26 16:24:57;;;;;;;5.27;4.77;;;20.80;99.90;;;;;;10368495;28;20222;-82
2021/07/26 16:30:00;;;;;;;5.50;5.00;;;20.90;99.90;;;;;;10353883;28;20671;-82
2021/07/26 16:35:02;;;;;;;6.53;5.40;;;20.90;99.90;;;;;;10367926;28;20206;-82
2021/07/26 16:40:07;;;;;;;5.37;4.97;;;21.00;99.90;;;;;;10388003;28;20222;-83
2021/07/26 16:45:11;;;;;;;5.57;5.03;;;21.10;99.90;;;;;;10384615;28;20265;-83
2021/07/26 16:50:14;;;;;;;6.37;5.87;;;21.10;99.90;;;;;;10362165;28;20214;-82
2021/07/26 16:55:18;;;;;;;6.00;5.40;;;21.10;99.90;;;;;;10365442;28;20561;-82
2021/07/26 17:00:20;;;;;;;5.77;5.37;;;21.10;99.90;;;;;;10365750;28;20230;-82
2021/07/26 17:05:22;;;;;;;5.83;5.30;;;21.10;99.90;;;;;;10387543;28;20722;-83
2021/07/26 17:10:26;;;;;;;11.43;5.90;;;21.10;99.90;;;;;;10356370;28;20222;-83
2021/07/26 17:15:28;;;;;;;4.50;4.10;;;21.20;99.90;;;;;;10390616;28;20205;-83
2021/07/26 17:20:31;;;;;;;5.87;4.33;;;21.30;99.90;;;;;;10372447;28;20223;-83
2021/07/26 17:25:34;;;;;;;4.83;4.43;;;21.30;99.90;;;;;;10375792;28;20233;-83
2021/07/26 17:30:37;;;;;;;7.03;4.30;;;21.20;99.90;;;;;;10362680;28;20198;-81
2021/07/26 17:35:39;;;;;;;5.47;3.03;;;21.20;99.90;;;;;;10363456;28;20194;-82
2021/07/26 17:40:42;;;;;;;6.23;5.20;;;21.20;99.90;;;;;;10381108;28;20242;-83
2021/07/26 17:45:45;;;;;;;5.50;5.00;;;21.30;99.90;;;;;;10379983;28;20230;-82
2021/07/26 17:50:47;;;;;;;5.10;4.70;;;21.20;99.90;;;;;;10346469;28;20207;-82
2021/07/26 17:55:51;;;;;;;4.80;4.40;;;21.10;99.90;;;;;;10363917;28;20269;-82
2021/07/26 18:00:53;;;;;;;6.30;5.70;;;21.10;99.90;;;;;;10369512;28;20207;-81
2021/07/26 18:05:56;;;;;;;6.40;5.77;;;21.20;99.90;;;;;;10354028;28;20230;-83
2021/07/26 18:11:00;;;;;;;6.07;5.53;;;21.20;99.90;;;;;;10364391;28;20659;-82
2021/07/26 18:16:02;;;;;;;3.50;3.30;;;21.20;99.90;;;;;;10369747;28;20230;-82
2021/07/26 18:21:05;;;;;;;5.80;5.30;;;21.10;99.90;;;;;;10388628;28;20222;-83
2021/07/26 18:26:08;;;;;;;6.90;6.30;;;21.00;99.90;;;;;;10371423;28;20276;-82
2021/07/26 18:31:10;;;;;;;7.90;5.27;;;21.00;99.90;;;;;;10355836;28;20206;-83
2021/07/26 18:36:13;;;;;;;5.57;4.90;;;21.00;99.90;;;;;;10344227;28;20229;-81
2021/07/26 18:41:16;;;;;;;11.50;7.10;;;21.00;99.90;;;;;;10378068;28;20326;-83
2021/07/26 18:46:18;;;;;;;8.70;6.23;;;20.90;99.90;;;;;;10360916;28;20272;-82
2021/07/26 18:51:24;;;;;;;7.07;6.37;;;20.60;99.90;;;;;;10343525;28;20215;-83
2021/07/26 18:56:29;;;;;;;6.53;5.80;;;20.40;99.90;;;;;;10376823;28;20223;-83
2021/07/26 19:01:31;;;;;;;8.53;7.53;;;20.20;99.90;;;;;;10377076;28;20207;-82
2021/07/26 19:06:33;;;;;;;7.20;6.60;;;20.10;99.90;;;;;;10358569;28;20222;-82
2021/07/26 19:11:37;;;;;;;7.47;6.87;;;20.00;99.90;;;;;;10357710;28;20305;-82
2021/07/26 19:16:40;;;;;;;7.00;6.40;;;19.90;99.90;;;;;;10357428;28;20309;-81
2021/07/26 19:21:42;;;;;;;8.10;7.30;;;19.90;99.90;;;;;;10375365;28;20211;-82
2021/07/26 19:26:45;;;;;;;7.97;7.27;;;19.90;99.90;;;;;;10376401;28;20301;-82
2021/07/26 19:31:47;;;;;;;7.10;6.50;;;19.80;99.90;;;;;;10341240;28;20202;-83
2021/07/26 19:36:49;;;;;;;6.53;5.77;;;19.70;99.90;;;;;;10358477;28;20461;-83
2021/07/26 19:41:53;;;;;;;5.77;5.37;;;19.70;99.90;;;;;;10358854;28;20234;-83
2021/07/26 19:46:58;;;;;;;6.53;6.00;;;19.70;99.90;;;;;;10342822;28;20249;-83
2021/07/26 19:52:00;;;;;;;6.50;5.43;;;19.60;99.90;;;;;;10340718;28;20226;-82
2021/07/26 19:57:05;;;;;;;5.40;4.90;;;19.60;99.90;;;;;;10355703;28;20230;-83
2021/07/26 20:02:07;;;;;;;5.93;5.43;;;19.60;99.90;;;;;;10372831;28;20308;-82
2021/07/26 20:07:09;;;;;;;5.77;5.17;;;19.60;99.90;;;;;;10373721;28;20217;-82
2021/07/26 20:12:13;;;;;;;5.60;5.20;;;19.60;99.90;;;;;;10334134;28;20737;-83
2021/07/26 20:17:15;;;;;;;6.40;5.90;;;19.60;99.90;;;;;;10339972;28;20671;-82
2021/07/26 20:22:17;;;;;;;6.07;4.97;;;19.70;99.90;;;;;;10373256;28;20708;-82
2021/07/26 20:27:21;;;;;;;5.77;5.03;;;19.70;99.90;;;;;;10353736;28;20253;-82
2021/07/26 20:32:23;;;;;;;5.40;4.50;;;19.80;99.90;;;;;;10353430;28;20224;-82
2021/07/26 20:37:25;;;;;;;4.20;3.70;;;19.80;99.90;;;;;;10356465;28;20321;-82
2021/07/26 20:42:29;;;;;;;5.70;3.70;;;19.80;99.90;;;;;;10355556;28;20306;-82
2021/07/26 20:47:32;;;;;;;3.60;3.30;;;19.70;99.90;;;;;;10369423;28;20309;-82
2021/07/26 20:52:34;;;;;;;3.63;3.33;;;19.70;99.90;;;;;;10372858;28;20230;-81
2021/07/26 20:57:38;;;;;;;3.10;2.90;;;19.70;99.90;;;;;;10372821;28;20226;-81
2021/07/26 21:02:40;;;;;;;4.73;3.60;;;19.70;99.90;;;;;;10355174;28;20226;-82
2021/07/26 21:07:42;;;;;;;3.27;2.97;;;19.70;99.90;;;;;;10338587;28;20285;-82
2021/07/26 21:12:47;;;;;;;3.20;2.70;;;19.70;99.90;;;;;;10355599;28;20199;-82
2021/07/26 21:17:49;;;;;;;4.03;2.80;;;19.60;99.90;;;;;;10369341;28;20226;-82
2021/07/26 21:22:51;;;;;;;3.47;2.67;;;19.60;99.90;;;;;;10370224;28;20304;-81
2021/07/26 21:27:58;;;;;;;2.93;2.50;;;19.50;99.90;;;;;;10371930;28;20321;-81
2021/07/26 21:33:00;;;;;;;3.30;2.60;;;19.40;99.90;;;;;;10341846;28;20194;-82
2021/07/26 21:38:03;;;;;;;2.87;2.67;;;19.30;99.90;;;;;;10363105;28;20300;-81
2021/07/26 21:43:06;;;;;;;7.87;2.83;;;19.30;99.90;;;;;;10340017;28;20218;-83
2021/07/26 21:48:08;;;;;;;4.00;3.10;;;19.20;99.90;;;;;;10355571;28;20309;-82
2021/07/26 21:53:10;;;;;;;4.87;2.80;;;19.20;99.90;;;;;;10356219;28;20278;-82
2021/07/26 21:58:14;;;;;;;5.50;2.90;;;19.10;99.90;;;;;;10362486;28;20226;-82
2021/07/26 22:03:16;;;;;;;4.30;2.97;;;19.00;99.90;;;;;;10362819;28;20234;-82
2021/07/26 22:08:18;;;;;;;3.00;2.80;;;19.00;99.90;;;;;;10366848;28;20226;-82
2021/07/26 22:13:21;;;;;;;5.23;3.00;;;19.00;99.90;;;;;;10355505;28;20229;-81
2021/07/26 22:18:24;;;;;;;4.90;2.90;;;19.00;99.90;;;;;;10360333;28;20773;-82
2021/07/26 22:23:26;;;;;;;8.00;3.00;;;19.00;99.90;;;;;;10361991;28;20254;-83
2021/07/26 22:28:29;;;;;;;3.40;3.10;;;19.00;99.90;;;;;;10353464;28;20238;-82
2021/07/26 22:33:32;;;;;;;3.60;3.40;;;19.00;99.90;;;;;;10404694;28;20198;-82
2021/07/26 22:38:34;;;;;;;5.77;3.50;;;19.00;99.90;;;;;;10392639;28;20254;-82
2021/07/26 22:43:37;;;;;;;5.77;3.47;;;19.00;99.90;;;;;;10362991;28;20218;-81
2021/07/26 22:48:39;;;;;;;4.37;4.03;;;19.00;99.90;;;;;;10373962;28;20229;-82
2021/07/26 22:53:42;;;;;;;3.93;3.63;;;19.00;99.90;;;;;;10357574;28;20198;-82
2021/07/26 22:58:47;;;;;;;5.60;5.03;;;19.00;99.90;;;;;;10394140;28;20250;-82
2021/07/26 23:03:49;;;;;;;5.73;5.13;;;19.10;99.90;;;;;;10393335;28;20740;-82
2021/07/26 23:08:53;;;;;;;5.20;4.80;;;19.20;99.90;;;;;;10358438;28;20740;-81
2021/07/26 23:13:58;;;;;;;6.83;5.00;;;19.20;99.90;;;;;;10366978;28;20277;-82
2021/07/26 23:19:00;;;;;;;5.43;4.93;;;19.30;99.90;;;;;;10365836;28;20234;-81
2021/07/26 23:24:02;;;;;;;5.60;5.10;;;19.30;99.90;;;;;;10358988;28;20233;-82
2021/07/26 23:29:05;;;;;;;5.00;4.70;;;19.30;99.90;;;;;;10365609;28;20301;-82
2021/07/26 23:34:07;;;;;;;5.03;4.53;;;19.30;99.90;;;;;;10364072;28;20201;-81
2021/07/26 23:39:10;;;;;;;5.53;5.03;;;19.30;99.90;;;;;;10360064;28;20222;-82
2021/07/26 23:44:13;;;;;;;5.10;4.70;;;19.30;99.90;;;;;;10340417;28;20214;-82
2021/07/26 23:49:15;;;;;;;5.60;4.27;;;19.20;99.90;;;;;;10359670;28;20253;-82
2021/07/26 23:54:17;;;;;;;5.63;4.97;;;19.20;99.90;;;;;;10349983;28;20736;-82
2021/07/26 23:59:21;;;;;;;5.90;5.30;;;19.20;99.90;;;;;;10366192;28;20332;-82
